EBFN

Koksijde Air Base Airport

Koksijde, Belgium
METAR EBFN 260355Z AUTO VRB02KT 1200 BR OVC003/// 13/13 Q1018 AMB
Observed Flight Rules
May-26 @ 03:55 UTC (30 minutes ago) Instrument Flight Rules
Wind Visibility Clouds Conditions
Variable at 2 knots 1,207 meters
  • Overcast at 300' AGL
  • Mist
Temperatures Readings
Current 13°C / 55°F
Dewpoint 13°C / 55°F
Humidity 100%
Altimeter 30.06" Hg
Pressure 1018 hPa
Elevation 9
METAR EBFN 260355Z AUTO VRB02KT 1200 BR OVC003/// 13/13 Q1018 AMB
Observed Flight Rules
May-26 @ 03:55 UTC
(30 minutes ago)
LIFR
Wind Visibility
Variable at 2 knots 1,207 meters
Clouds
  • Overcast at 300' AGL
Conditions
  • Mist
Temperature Dewpoint
13°C / 55°F 13°C / 55°F
Humidity Altimeter Pressure
100% 30.06" Hg 1018 hPa